createdAt,value
2022-10-03T00:02:42.864Z,14
2022-10-03T00:12:43.996Z,18
2022-10-03T00:22:45.119Z,20
2022-10-03T00:32:46.240Z,23
2022-10-03T00:42:47.418Z,25
2022-10-03T00:52:48.493Z,24
2022-10-03T01:02:49.613Z,17
2022-10-03T01:12:50.923Z,27
2022-10-03T01:22:52.151Z,26
2022-10-03T01:32:53.255Z,15
2022-10-03T01:42:54.398Z,20
2022-10-03T01:52:55.522Z,19
2022-10-03T02:02:56.604Z,13
2022-10-03T02:12:57.693Z,20
2022-10-03T02:22:58.798Z,23
2022-10-03T02:32:59.906Z,14
2022-10-03T02:43:01.288Z,7
2022-10-03T02:53:02.953Z,6
2022-10-03T03:03:04.697Z,5
2022-10-03T03:13:06.469Z,6
2022-10-03T03:23:08.149Z,5
2022-10-03T03:33:09.699Z,7
2022-10-03T03:43:11.306Z,10
2022-10-03T03:53:12.887Z,7
2022-10-03T04:03:14.257Z,9
2022-10-03T04:13:15.627Z,9
2022-10-03T04:23:16.803Z,9
2022-10-03T04:33:17.922Z,11
2022-10-03T04:43:19.050Z,15
2022-10-03T04:53:20.307Z,11
2022-10-03T05:03:21.490Z,10
2022-10-03T05:13:22.598Z,10
2022-10-03T05:23:23.705Z,9
2022-10-03T05:33:24.834Z,9
2022-10-03T05:43:25.979Z,8
2022-10-03T05:53:27.171Z,8
2022-10-03T06:03:28.338Z,11
2022-10-03T06:13:29.530Z,11
2022-10-03T06:23:30.892Z,9
2022-10-03T06:33:31.987Z,10
2022-10-03T06:43:33.097Z,10
2022-10-03T06:53:34.320Z,13
2022-10-03T07:03:35.516Z,12
2022-10-03T07:13:36.609Z,22
2022-10-03T07:23:37.750Z,29
2022-10-03T07:33:39.275Z,16
2022-10-03T07:43:40.734Z,12
2022-10-03T07:53:41.825Z,14
2022-10-03T08:03:43.067Z,13
2022-10-03T08:13:44.246Z,11
2022-10-03T08:23:45.394Z,11
2022-10-03T08:33:46.544Z,12
2022-10-03T08:43:47.713Z,19
2022-10-03T08:53:48.926Z,20
2022-10-03T09:03:50.142Z,17
2022-10-03T09:13:51.547Z,12
2022-10-03T09:23:52.686Z,7
2022-10-03T09:33:53.789Z,7
2022-10-03T09:43:54.889Z,10
2022-10-03T09:53:56.039Z,3
2022-10-03T10:03:57.228Z,3
2022-10-03T10:14:07.611Z,3
2022-10-03T10:24:09.786Z,2
2022-10-03T10:34:11.399Z,2
2022-10-03T10:44:12.559Z,6
2022-10-03T10:54:13.864Z,4
2022-10-03T11:04:15.025Z,2
2022-10-03T11:14:16.165Z,4
2022-10-03T11:24:17.267Z,3
2022-10-03T11:34:18.412Z,0
2022-10-03T11:44:19.599Z,1
2022-10-03T11:54:30.978Z,1
2022-10-03T12:04:36.961Z,1
2022-10-03T12:14:38.157Z,0
2022-10-03T12:24:39.321Z,0
2022-10-03T12:34:40.705Z,0
2022-10-03T12:44:41.964Z,1
2022-10-03T12:54:43.088Z,1
2022-10-03T13:04:44.278Z,1
2022-10-03T13:14:45.392Z,1
2022-10-03T13:24:46.520Z,0
2022-10-03T13:34:47.658Z,1
2022-10-03T13:44:48.826Z,1
2022-10-03T13:54:49.997Z,2
2022-10-03T14:04:51.351Z,2
2022-10-03T14:14:52.514Z,2
2022-10-03T14:24:53.645Z,1
2022-10-03T14:34:54.781Z,3
2022-10-03T14:44:56.208Z,2
2022-10-03T14:54:57.388Z,2
2022-10-03T15:04:58.621Z,1
2022-10-03T15:14:59.729Z,2
2022-10-03T15:25:01.059Z,2
2022-10-03T15:35:02.670Z,3
2022-10-03T15:45:04.420Z,2
2022-10-03T15:55:11.981Z,2
2022-10-03T16:05:13.475Z,3
2022-10-03T16:15:17.101Z,4
2022-10-03T16:25:18.570Z,5
2022-10-03T16:35:19.686Z,5
2022-10-03T16:45:21.218Z,5
2022-10-03T16:55:22.439Z,5
2022-10-03T17:05:23.666Z,5
2022-10-03T17:15:24.799Z,5
2022-10-03T17:25:25.935Z,4
2022-10-03T17:35:27.066Z,4
2022-10-03T17:45:28.196Z,5
2022-10-03T17:55:29.397Z,2
2022-10-03T18:05:30.848Z,6
2022-10-03T18:15:32.093Z,5
2022-10-03T18:25:33.210Z,6
2022-10-03T18:35:34.811Z,5
2022-10-03T18:45:36.062Z,6
2022-10-03T18:55:37.262Z,8
2022-10-03T19:05:38.402Z,5
2022-10-03T19:15:40.008Z,4
2022-10-03T19:25:41.457Z,8
2022-10-03T19:35:42.598Z,6
2022-10-03T19:45:43.758Z,8
2022-10-03T19:55:45.043Z,8
2022-10-03T20:05:46.358Z,9
2022-10-03T20:15:47.613Z,9
2022-10-03T20:25:48.832Z,10
2022-10-03T20:35:49.955Z,10
2022-10-03T20:45:51.411Z,8
2022-10-03T20:55:52.692Z,8
2022-10-03T21:05:53.922Z,8
2022-10-03T21:15:55.093Z,7
2022-10-03T21:25:56.242Z,8
2022-10-03T21:35:57.383Z,8
2022-10-03T21:45:58.569Z,9
2022-10-03T21:55:59.756Z,10
2022-10-03T22:06:01.145Z,10
2022-10-03T22:16:02.925Z,8
2022-10-03T22:26:04.838Z,7
2022-10-03T22:36:06.504Z,8
2022-10-03T22:46:08.246Z,8
2022-10-03T22:56:09.775Z,6
2022-10-03T23:06:11.248Z,7
2022-10-03T23:16:12.720Z,6
2022-10-03T23:26:13.954Z,6
2022-10-03T23:36:15.176Z,6
2022-10-03T23:46:16.375Z,6
2022-10-03T23:56:17.511Z,7
